Time;durP1;ratioP1;P1;durP2;ratioP2;P2;SDS_P1;SDS_P2;PMS_P1;PMS_P2;Temp;Humidity;BMP_temperature;BMP_pressure;BME280_temperature;BME280_humidity;BME280_pressure;Samples;Min_cycle;Max_cycle;Signal;HPM_P1;HPM_P2
2023/12/04 00:01:53;;;;;;;8.35;2.20;;;;;;;4.92;100.00;100173.25;5049613;28;20155;-67
2023/12/04 00:04:20;;;;;;;6.63;2.13;;;;;;;4.94;100.00;100176.69;5053845;28;20057;-65
2023/12/04 00:06:47;;;;;;;8.00;1.65;;;;;;;4.87;100.00;100167.31;5049444;28;20049;-67
2023/12/04 00:09:13;;;;;;;4.28;1.60;;;;;;;4.77;100.00;100169.28;5035027;28;20050;-66
2023/12/04 00:11:40;;;;;;;6.97;2.33;;;;;;;4.79;100.00;100170.09;5062145;28;20072;-67
2023/12/04 00:14:07;;;;;;;3.75;1.40;;;;;;;4.74;100.00;100167.59;5046931;28;20081;-66
2023/12/04 00:16:37;;;;;;;7.18;2.38;;;;;;;4.43;100.00;100157.06;5047090;28;20580;-67
2023/12/04 00:19:04;;;;;;;3.53;1.55;;;;;;;4.64;100.00;100165.22;5052303;28;20791;-67
2023/12/04 00:21:31;;;;;;;3.50;1.50;;;;;;;4.65;100.00;100153.97;5050739;28;20071;-67
2023/12/04 00:23:58;;;;;;;4.25;1.50;;;;;;;4.60;100.00;100158.41;5058383;28;20092;-65
2023/12/04 00:26:24;;;;;;;2.58;1.20;;;;;;;4.57;100.00;100167.97;5048358;28;20053;-67
2023/12/04 00:28:51;;;;;;;2.10;1.30;;;;;;;4.42;100.00;100173.47;5068304;28;20048;-66
2023/12/04 00:31:18;;;;;;;4.05;1.30;;;;;;;4.22;100.00;100154.94;5068088;28;20102;-67
2023/12/04 00:33:44;;;;;;;3.75;1.63;;;;;;;4.23;100.00;100151.44;5047361;28;20041;-65
2023/12/04 00:36:11;;;;;;;2.97;1.30;;;;;;;4.19;100.00;100146.31;5041233;28;20052;-65
2023/12/04 00:38:38;;;;;;;4.00;1.50;;;;;;;4.19;100.00;100133.34;5059753;28;20567;-64
2023/12/04 00:41:05;;;;;;;2.38;1.10;;;;;;;4.33;100.00;100135.66;5052516;28;20494;-67
2023/12/04 00:43:31;;;;;;;3.60;1.13;;;;;;;4.51;100.00;100128.34;5051963;28;20057;-67
2023/12/04 00:45:58;;;;;;;2.75;1.25;;;;;;;4.60;100.00;100132.50;5055969;28;20121;-65
2023/12/04 00:48:25;;;;;;;3.28;1.20;;;;;;;4.58;100.00;100127.34;5068471;28;20045;-67
2023/12/04 00:50:52;;;;;;;3.70;1.13;;;;;;;4.77;100.00;100137.31;5059721;28;20059;-67
2023/12/04 00:53:18;;;;;;;3.78;1.20;;;;;;;4.80;100.00;100138.09;5051042;28;20044;-66
2023/12/04 00:55:45;;;;;;;2.22;1.10;;;;;;;4.61;100.00;100131.63;5062455;28;20421;-65
2023/12/04 00:58:12;;;;;;;3.53;1.40;;;;;;;4.42;100.00;100132.00;5057547;28;20051;-65
2023/12/04 01:00:39;;;;;;;3.17;1.38;;;;;;;4.30;100.00;100117.59;5043877;28;20561;-65
2023/12/04 01:03:06;;;;;;;5.50;1.40;;;;;;;4.21;100.00;100120.38;5043300;28;20045;-65
2023/12/04 01:05:32;;;;;;;7.80;1.88;;;;;;;4.16;100.00;100129.97;5051719;28;20475;-68
2023/12/04 01:08:00;;;;;;;3.13;1.35;;;;;;;4.07;100.00;100127.56;5050993;28;20064;-65
2023/12/04 01:10:26;;;;;;;3.50;1.40;;;;;;;4.12;100.00;100133.50;5048386;28;20053;-65
2023/12/04 01:12:53;;;;;;;3.78;1.33;;;;;;;4.12;100.00;100131.78;5043198;28;20049;-65
2023/12/04 01:15:20;;;;;;;4.18;1.40;;;;;;;4.16;100.00;100124.78;5049708;28;20056;-65
2023/12/04 01:17:46;;;;;;;13.35;2.63;;;;;;;4.17;100.00;100105.78;5048294;28;20051;-65
2023/12/04 01:20:13;;;;;;;6.00;1.48;;;;;;;4.46;100.00;100109.47;5048268;28;20576;-65
2023/12/04 01:22:40;;;;;;;3.42;1.40;;;;;;;4.49;100.00;100123.22;5044203;28;20067;-65
2023/12/04 01:25:07;;;;;;;8.25;2.60;;;;;;;4.38;100.00;100113.06;5047923;28;20045;-65
2023/12/04 01:27:37;;;;;;;5.60;1.67;;;;;;;4.45;100.00;100120.75;5045874;28;20076;-65
2023/12/04 01:30:07;;;;;;;5.72;1.73;;;;;;;4.46;100.00;100110.34;5047463;28;20376;-65
2023/12/04 01:32:34;;;;;;;3.50;1.33;;;;;;;4.82;100.00;100096.56;5044509;28;20134;-65
2023/12/04 01:35:02;;;;;;;6.13;1.50;;;;;;;4.94;100.00;100073.75;5044273;28;20061;-65
2023/12/04 01:37:29;;;;;;;2.88;1.23;;;;;;;5.14;100.00;100087.97;5047639;28;20475;-65
2023/12/04 01:39:55;;;;;;;3.13;1.10;;;;;;;5.23;100.00;100090.31;5048701;28;20402;-65
2023/12/04 01:42:22;;;;;;;1.30;1.10;;;;;;;5.32;100.00;100082.28;5050094;28;20057;-65
2023/12/04 01:44:49;;;;;;;3.80;1.30;;;;;;;5.27;100.00;100075.50;5042205;28;20060;-65
2023/12/04 01:47:17;;;;;;;2.90;1.20;;;;;;;5.26;100.00;100081.59;5050884;28;20835;-67
2023/12/04 01:49:44;;;;;;;8.80;1.55;;;;;;;5.15;100.00;100084.44;5049759;28;20094;-65
2023/12/04 01:52:11;;;;;;;8.38;1.60;;;;;;;5.06;100.00;100085.53;5051372;28;20501;-65
2023/12/04 01:54:38;;;;;;;7.43;1.50;;;;;;;4.98;100.00;100097.88;5059490;28;20049;-65
2023/12/04 01:57:06;;;;;;;4.03;1.20;;;;;;;4.95;100.00;100095.34;5059855;28;20517;-65
2023/12/04 01:59:33;;;;;;;3.97;1.30;;;;;;;4.91;100.00;100085.94;5053167;28;20040;-65
2023/12/04 02:02:00;;;;;;;2.63;1.10;;;;;;;5.02;100.00;100085.69;5060029;28;20056;-65
2023/12/04 02:04:27;;;;;;;6.10;2.63;;;;;;;4.90;100.00;100095.44;5048175;28;20052;-65
2023/12/04 02:06:54;;;;;;;4.05;1.20;;;;;;;4.93;100.00;100090.19;5050716;28;20556;-65
2023/12/04 02:09:21;;;;;;;2.33;1.13;;;;;;;5.02;100.00;100077.88;5053018;28;20093;-65
2023/12/04 02:11:48;;;;;;;3.08;1.58;;;;;;;5.22;100.00;100093.78;5050277;28;20059;-65
2023/12/04 02:14:15;;;;;;;1.73;0.93;;;;;;;5.30;100.00;100086.66;5043173;28;20049;-65
2023/12/04 02:16:43;;;;;;;2.50;1.10;;;;;;;5.28;100.00;100061.66;5053303;28;20045;-65
2023/12/04 02:19:13;;;;;;;1.75;0.98;;;;;;;5.33;100.00;100071.00;5044371;28;20084;-65
2023/12/04 02:21:40;;;;;;;3.13;0.90;;;;;;;5.29;100.00;100065.94;5047664;28;20415;-65
2023/12/04 02:24:07;;;;;;;2.00;1.02;;;;;;;5.25;100.00;100074.69;5050447;28;20048;-65
2023/12/04 02:26:47;;;;;;;6.20;1.40;;;;;;;5.12;100.00;100098.38;5052248;28;20102;-65
2023/12/04 02:29:19;;;;;;;3.38;1.00;;;;;;;5.17;100.00;100080.09;5062132;28;20055;-66
2023/12/04 02:31:47;;;;;;;5.78;1.42;;;;;;;5.23;100.00;100089.47;5053738;28;20135;-66
2023/12/04 02:34:15;;;;;;;4.68;1.30;;;;;;;5.24;100.00;100079.06;5048364;28;20049;-65
2023/12/04 02:36:43;;;;;;;5.70;1.40;;;;;;;5.22;100.00;100088.59;5049177;28;20049;-65
2023/12/04 02:39:11;;;;;;;7.95;1.63;;;;;;;5.26;100.00;100085.06;5049398;28;20501;-65
2023/12/04 02:41:38;;;;;;;4.18;1.20;;;;;;;5.26;100.00;100079.84;5049687;28;20107;-66
2023/12/04 02:44:04;;;;;;;2.75;1.27;;;;;;;5.44;100.00;100086.31;5048995;28;20372;-65
2023/12/04 02:46:31;;;;;;;3.92;2.00;;;;;;;5.43;100.00;100087.19;5062062;28;20059;-65
2023/12/04 02:48:58;;;;;;;2.72;1.20;;;;;;;5.48;100.00;100090.50;5048563;28;20431;-65
2023/12/04 02:51:26;;;;;;;3.47;1.13;;;;;;;5.39;100.00;100075.19;5056696;28;20049;-65
2023/12/04 02:53:53;;;;;;;4.05;1.42;;;;;;;5.39;100.00;100077.78;5048853;28;20088;-65
2023/12/04 02:56:19;;;;;;;5.57;1.20;;;;;;;5.42;100.00;100064.72;5049745;28;20483;-66
2023/12/04 02:58:46;;;;;;;5.63;1.48;;;;;;;5.49;100.00;100076.66;5060934;28;20055;-65
2023/12/04 03:01:13;;;;;;;10.20;2.28;;;;;;;5.60;100.00;100078.09;5051401;28;20668;-66
2023/12/04 03:03:39;;;;;;;4.00;1.40;;;;;;;5.50;100.00;100069.69;5060176;28;20057;-66
2023/12/04 03:06:07;;;;;;;3.22;1.10;;;;;;;5.65;100.00;100058.06;5053480;28;20066;-66
2023/12/04 03:08:33;;;;;;;3.17;1.10;;;;;;;5.80;100.00;100074.94;5048481;28;20048;-66
2023/12/04 03:11:02;;;;;;;4.82;1.25;;;;;;;5.77;100.00;100070.69;5058714;28;20474;-66
2023/12/04 03:13:29;;;;;;;6.75;1.73;;;;;;;5.83;100.00;100059.28;5045820;28;20064;-66
2023/12/04 03:15:56;;;;;;;6.43;1.88;;;;;;;5.67;100.00;100071.84;5048309;28;20080;-66
2023/12/04 03:18:25;;;;;;;8.43;1.90;;;;;;;5.70;100.00;100062.22;5044789;28;20391;-65
2023/12/04 03:20:52;;;;;;;8.82;1.55;;;;;;;5.81;100.00;100067.09;5054431;28;20444;-66
2023/12/04 03:23:18;;;;;;;6.50;1.60;;;;;;;5.63;100.00;100071.06;5046459;28;20059;-66
2023/12/04 03:25:45;;;;;;;5.88;1.60;;;;;;;5.78;100.00;100081.94;5048725;28;20067;-66
2023/12/04 03:28:13;;;;;;;3.83;1.40;;;;;;;5.61;100.00;100067.69;5057715;28;20052;-66
2023/12/04 03:30:40;;;;;;;6.80;1.27;;;;;;;5.83;100.00;100080.06;5052439;28;20405;-65
2023/12/04 03:33:06;;;;;;;8.57;1.98;;;;;;;5.94;100.00;100083.19;5055870;28;20379;-65
2023/12/04 03:35:33;;;;;;;4.82;1.77;;;;;;;5.76;100.00;100087.16;5056962;28;20671;-65
2023/12/04 03:38:00;;;;;;;10.40;1.95;;;;;;;5.83;100.00;100074.84;5053907;28;20052;-66
2023/12/04 03:40:27;;;;;;;7.88;1.40;;;;;;;5.90;100.00;100073.78;5063807;28;20048;-66
2023/12/04 03:42:53;;;;;;;5.70;1.70;;;;;;;5.88;100.00;100063.44;5049071;28;20053;-66
2023/12/04 03:45:20;;;;;;;2.67;1.17;;;;;;;5.88;100.00;100062.59;5042992;28;20053;-66
2023/12/04 03:47:47;;;;;;;3.13;1.13;;;;;;;5.97;100.00;100061.50;5055502;28;20398;-65
2023/12/04 03:50:13;;;;;;;5.97;1.60;;;;;;;6.07;100.00;100068.09;5061623;28;20044;-66
2023/12/04 03:52:41;;;;;;;2.78;1.20;;;;;;;6.06;100.00;100079.41;5068077;28;20056;-67
2023/12/04 03:55:09;;;;;;;12.02;2.17;;;;;;;5.86;100.00;100064.34;5049348;28;20451;-67
2023/12/04 03:57:35;;;;;;;8.45;1.50;;;;;;;5.96;100.00;100072.78;5051626;28;20091;-65
2023/12/04 04:00:03;;;;;;;4.25;1.30;;;;;;;6.05;100.00;100070.75;5057227;28;20402;-65
2023/12/04 04:02:29;;;;;;;3.63;1.23;;;;;;;5.78;100.00;100064.59;5049014;28;20049;-65
2023/12/04 04:04:57;;;;;;;5.13;1.15;;;;;;;5.96;100.00;100058.03;5048448;28;20067;-65
2023/12/04 04:07:24;;;;;;;7.95;1.50;;;;;;;5.67;100.00;100058.84;5042344;28;20067;-65
2023/12/04 04:09:50;;;;;;;7.18;1.80;;;;;;;5.45;100.00;100046.47;5053453;28;20048;-67
2023/12/04 04:12:17;;;;;;;9.13;2.17;;;;;;;5.45;100.00;100041.28;5053142;28;20160;-67
2023/12/04 04:14:44;;;;;;;7.32;1.95;;;;;;;5.37;100.00;100057.97;5049064;28;20049;-66
2023/12/04 04:17:10;;;;;;;5.65;1.70;;;;;;;5.58;100.00;100049.56;5057547;28;20660;-66
2023/12/04 04:19:37;;;;;;;7.00;1.50;;;;;;;5.61;100.00;100043.44;5046396;28;20047;-65
2023/12/04 04:22:04;;;;;;;13.10;2.00;;;;;;;5.53;100.00;100033.28;5048507;28;20517;-66
2023/12/04 04:24:30;;;;;;;7.47;2.38;;;;;;;5.59;100.00;100042.63;5044275;28;20120;-66
2023/12/04 04:26:57;;;;;;;6.18;1.60;;;;;;;5.57;100.00;100041.81;5060641;28;20050;-66
2023/12/04 04:29:24;;;;;;;4.47;1.40;;;;;;;5.44;100.00;100028.34;5049428;28;20483;-66
2023/12/04 04:31:51;;;;;;;5.82;1.90;;;;;;;5.29;100.00;100009.69;5051817;28;20048;-66
2023/12/04 04:34:19;;;;;;;10.85;2.30;;;;;;;5.51;100.00;100038.50;5045800;28;20065;-66
2023/12/04 04:36:46;;;;;;;6.80;2.15;;;;;;;5.46;100.00;100040.38;5047825;28;20047;-66
2023/12/04 04:39:14;;;;;;;7.57;1.70;;;;;;;5.64;100.00;100036.41;5049199;28;20057;-66
2023/12/04 04:41:40;;;;;;;4.97;1.50;;;;;;;5.70;100.00;100041.44;5034023;28;20049;-66
2023/12/04 04:44:07;;;;;;;16.00;1.80;;;;;;;5.61;100.00;100046.91;5033177;28;20045;-66
2023/12/04 04:46:33;;;;;;;11.57;2.28;;;;;;;5.60;100.00;100045.19;5034904;28;20147;-66
2023/12/04 04:49:01;;;;;;;8.90;1.67;;;;;;;5.62;100.00;100053.78;5036106;28;20052;-65
2023/12/04 04:51:29;;;;;;;4.35;1.48;;;;;;;5.38;100.00;100060.47;5059874;28;20052;-66
2023/12/04 04:53:56;;;;;;;6.10;1.60;;;;;;;5.39;100.00;100056.16;5057685;28;20151;-67
2023/12/04 04:56:22;;;;;;;9.93;2.30;;;;;;;5.21;100.00;100053.16;5032557;28;20496;-66
2023/12/04 04:58:49;;;;;;;8.10;1.52;;;;;;;5.31;100.00;100036.47;5047342;28;20045;-66
2023/12/04 05:01:19;;;;;;;4.97;1.73;;;;;;;5.49;100.00;100040.28;5042726;28;20048;-66
2023/12/04 05:03:45;;;;;;;7.35;1.80;;;;;;;5.54;100.00;100031.50;5050243;28;20394;-66
2023/12/04 05:06:12;;;;;;;8.05;1.90;;;;;;;5.49;100.00;100044.66;5046410;28;20060;-66
2023/12/04 05:08:39;;;;;;;7.47;1.63;;;;;;;5.61;100.00;100040.84;5047194;28;20110;-66
2023/12/04 05:11:06;;;;;;;10.93;2.35;;;;;;;5.57;100.00;100040.06;5047924;28;20120;-67
2023/12/04 05:13:32;;;;;;;13.20;2.03;;;;;;;5.69;100.00;100037.13;5048219;28;20487;-66
2023/12/04 05:16:00;;;;;;;12.05;2.10;;;;;;;5.64;100.00;100056.34;5047682;28;20071;-66
2023/12/04 05:18:27;;;;;;;17.17;3.22;;;;;;;5.73;100.00;100044.84;5052780;28;20059;-66
2023/12/04 05:20:53;;;;;;;11.75;2.13;;;;;;;5.64;100.00;100058.94;5050878;28;20162;-66
2023/12/04 05:23:20;;;;;;;23.13;3.00;;;;;;;5.78;100.00;100045.56;5039484;28;20758;-65
2023/12/04 05:25:47;;;;;;;10.68;2.47;;;;;;;5.87;100.00;100053.91;5052365;28;20049;-66
2023/12/04 05:28:16;;;;;;;14.45;2.97;;;;;;;5.61;100.00;100049.50;5042715;28;20052;-66
2023/12/04 05:30:43;;;;;;;10.85;2.33;;;;;;;5.85;100.00;100066.13;5051268;28;20156;-68
2023/12/04 05:33:10;;;;;;;17.75;2.55;;;;;;;5.70;100.00;100061.34;5051235;28;20056;-68
2023/12/04 05:35:37;;;;;;;12.70;3.00;;;;;;;5.80;100.00;100070.59;5049087;28;20135;-66
2023/12/04 05:38:04;;;;;;;9.70;2.65;;;;;;;5.87;100.00;100060.88;5049709;28;20053;-66
2023/12/04 05:40:31;;;;;;;10.65;2.33;;;;;;;5.80;100.00;100062.78;5048675;28;20052;-66
2023/12/04 05:42:58;;;;;;;10.45;2.78;;;;;;;5.72;100.00;100046.59;5050300;28;20041;-66
2023/12/04 05:45:24;;;;;;;23.00;5.68;;;;;;;5.97;100.00;100071.91;5047048;28;20088;-66
2023/12/04 05:47:52;;;;;;;11.45;2.53;;;;;;;5.99;100.00;100076.16;5050881;28;20326;-66
2023/12/04 05:50:19;;;;;;;14.45;3.35;;;;;;;5.77;100.00;100065.50;5050712;28;20056;-67
2023/12/04 05:52:46;;;;;;;12.23;2.42;;;;;;;5.73;100.00;100078.59;5050985;28;20053;-66
2023/12/04 05:55:12;;;;;;;13.18;2.97;;;;;;;5.95;100.00;100084.03;5042965;28;20380;-66
2023/12/04 05:57:39;;;;;;;13.27;2.67;;;;;;;5.85;100.00;100089.50;5045715;28;20088;-67
2023/12/04 06:00:12;;;;;;;10.27;2.13;;;;;;;5.90;100.00;100084.19;5051529;28;20127;-67
2023/12/04 06:02:39;;;;;;;13.82;2.50;;;;;;;5.83;100.00;100074.84;5065003;28;20492;-66
2023/12/04 06:05:07;;;;;;;17.10;2.55;;;;;;;5.90;100.00;100082.41;5042063;28;20073;-67
2023/12/04 06:07:35;;;;;;;12.52;2.67;;;;;;;5.95;100.00;100074.50;5040088;28;20080;-66
2023/12/04 06:10:05;;;;;;;9.95;2.67;;;;;;;6.06;100.00;100071.63;5058544;28;20050;-67
2023/12/04 06:12:32;;;;;;;17.02;2.72;;;;;;;6.03;100.00;100087.28;5049353;28;20057;-66
2023/12/04 06:15:00;;;;;;;15.55;3.38;;;;;;;6.04;100.00;100078.63;5049568;28;20049;-67
2023/12/04 06:17:27;;;;;;;12.70;2.47;;;;;;;5.98;100.00;100070.97;5047933;28;20053;-66
2023/12/04 06:19:54;;;;;;;16.33;3.92;;;;;;;5.92;100.00;100087.56;5049722;28;20623;-67
2023/12/04 06:22:21;;;;;;;11.40;2.55;;;;;;;6.00;100.00;100083.06;5050730;28;20060;-67
2023/12/04 06:24:49;;;;;;;11.68;2.05;;;;;;;6.12;100.00;100078.38;5050203;28;20053;-66
2023/12/04 06:27:20;;;;;;;6.72;1.90;;;;;;;6.04;100.00;100068.22;5049387;28;20114;-67
2023/12/04 06:29:48;;;;;;;10.55;2.58;;;;;;;5.93;100.00;100080.63;5049649;28;20041;-67
2023/12/04 06:32:19;;;;;;;10.85;2.05;;;;;;;5.96;100.00;100075.38;5048735;28;20806;-67
2023/12/04 06:34:46;;;;;;;8.30;2.10;;;;;;;6.00;100.00;100079.59;5048275;28;20486;-67
2023/12/04 06:37:14;;;;;;;14.60;2.30;;;;;;;6.02;100.00;100075.19;5048642;28;20118;-67
2023/12/04 06:39:41;;;;;;;9.52;3.35;;;;;;;5.94;100.00;100090.13;5044578;28;20049;-67
2023/12/04 06:42:09;;;;;;;13.45;2.35;;;;;;;5.76;100.00;100081.13;5046999;28;20127;-67
2023/12/04 06:44:36;;;;;;;9.27;2.45;;;;;;;5.89;100.00;100080.72;5047364;28;20068;-67
2023/12/04 06:47:04;;;;;;;12.15;2.10;;;;;;;6.05;100.00;100088.94;5046160;28;20044;-67
2023/12/04 06:49:32;;;;;;;6.07;1.95;;;;;;;6.13;100.00;100083.53;5050309;28;20128;-67
2023/12/04 06:52:00;;;;;;;9.27;3.05;;;;;;;6.05;100.00;100080.31;5050661;28;20123;-67
2023/12/04 06:54:27;;;;;;;14.35;2.72;;;;;;;6.20;100.00;100097.22;5048326;28;20049;-67
2023/12/04 06:56:54;;;;;;;7.47;1.95;;;;;;;6.07;100.00;100081.09;5042917;28;20060;-67
2023/12/04 06:59:21;;;;;;;13.10;2.75;;;;;;;6.08;100.00;100080.22;5045520;28;20430;-67
2023/12/04 07:01:47;;;;;;;8.40;2.58;;;;;;;6.03;100.00;100069.94;5047655;28;20052;-67
2023/12/04 07:04:20;;;;;;;9.43;2.42;;;;;;;6.06;100.00;100080.25;5035744;28;20099;-67
2023/12/04 07:06:48;;;;;;;10.77;2.55;;;;;;;6.05;100.00;100065.56;5048772;28;20132;-67
2023/12/04 07:09:16;;;;;;;8.85;2.67;;;;;;;6.35;100.00;100072.50;5053713;28;20048;-67
2023/12/04 07:11:44;;;;;;;8.20;2.33;;;;;;;6.35;100.00;100078.53;5037467;28;20470;-67
2023/12/04 07:14:10;;;;;;;14.73;3.70;;;;;;;6.32;100.00;100062.16;5043766;28;20512;-67
2023/12/04 07:16:43;;;;;;;17.48;3.30;;;;;;;6.20;100.00;100059.06;5048626;28;20059;-67
2023/12/04 07:19:10;;;;;;;9.55;2.67;;;;;;;6.40;100.00;100076.63;5047278;28;20494;-69
2023/12/04 07:21:38;;;;;;;19.33;4.35;;;;;;;6.19;100.00;100075.53;5048305;28;20055;-67
2023/12/04 07:24:06;;;;;;;18.08;3.67;;;;;;;6.32;100.00;100080.38;5045184;28;20483;-67
2023/12/04 07:26:37;;;;;;;18.33;4.32;;;;;;;6.26;100.00;100081.41;5043994;28;20067;-67
2023/12/04 07:29:03;;;;;;;17.42;4.38;;;;;;;6.19;100.00;100095.50;5044057;28;20502;-67
2023/12/04 07:31:30;;;;;;;18.42;4.28;;;;;;;6.29;100.00;100094.31;5042282;28;20139;-68
2023/12/04 07:34:00;;;;;;;13.70;3.22;;;;;;;6.21;100.00;100110.13;5036682;28;20045;-67
2023/12/04 07:36:27;;;;;;;12.18;2.70;;;;;;;6.40;100.00;100115.66;5045367;28;20190;-68
2023/12/04 07:38:54;;;;;;;10.77;3.22;;;;;;;6.38;100.00;100104.44;5049714;28;20051;-68
2023/12/04 07:41:21;;;;;;;15.30;4.53;;;;;;;6.39;100.00;100107.88;5047462;28;20530;-67
2023/12/04 07:43:48;;;;;;;12.90;3.47;;;;;;;6.64;100.00;100110.59;5044881;28;20061;-68
2023/12/04 07:46:15;;;;;;;9.38;3.72;;;;;;;6.64;100.00;100102.81;5048023;28;20573;-68
2023/12/04 07:48:43;;;;;;;13.68;4.25;;;;;;;6.70;100.00;100112.16;5048707;28;20053;-68
2023/12/04 07:51:10;;;;;;;12.18;3.80;;;;;;;6.63;100.00;100119.28;5049983;28;20048;-68
2023/12/04 07:53:37;;;;;;;21.95;4.47;;;;;;;6.63;100.00;100109.72;5047096;28;20056;-68
2023/12/04 07:56:04;;;;;;;20.55;5.93;;;;;;;6.53;100.00;100120.47;5040566;28;20048;-68
2023/12/04 07:58:31;;;;;;;16.00;4.20;;;;;;;6.49;100.00;100131.88;5048817;28;20065;-68
2023/12/04 08:00:59;;;;;;;23.15;4.82;;;;;;;6.67;100.00;100125.25;5047863;28;20517;-68
2023/12/04 08:03:26;;;;;;;12.80;3.38;;;;;;;6.80;100.00;100124.81;5045185;28;20052;-68
2023/12/04 08:05:53;;;;;;;15.65;3.50;;;;;;;6.57;100.00;100122.94;5038060;28;20045;-71
2023/12/04 08:08:20;;;;;;;18.05;4.53;;;;;;;6.53;100.00;100126.53;5030411;28;20060;-70
2023/12/04 08:10:48;;;;;;;13.88;3.88;;;;;;;6.59;100.00;100133.31;5040120;28;20088;-70
2023/12/04 08:13:15;;;;;;;15.65;3.80;;;;;;;6.58;100.00;100116.81;5035973;28;20053;-70
2023/12/04 08:15:44;;;;;;;15.07;4.50;;;;;;;6.65;100.00;100127.91;5032907;28;20365;-70
2023/12/04 08:18:10;;;;;;;13.65;4.00;;;;;;;6.45;100.00;100128.53;5038013;28;20040;-70
2023/12/04 08:20:37;;;;;;;12.32;3.75;;;;;;;6.56;100.00;100142.03;5041203;28;20046;-70
2023/12/04 08:23:07;;;;;;;15.27;4.13;;;;;;;6.40;100.00;100138.22;5042022;28;20441;-70
2023/12/04 08:25:36;;;;;;;12.02;3.22;;;;;;;6.47;100.00;100143.16;5046509;28;20053;-70
2023/12/04 08:28:03;;;;;;;15.40;4.00;;;;;;;6.52;100.00;100153.44;5044877;28;20509;-70
2023/12/04 08:30:30;;;;;;;16.05;4.38;;;;;;;6.57;100.00;100148.09;5047423;28;20053;-70
2023/12/04 08:32:57;;;;;;;14.30;4.65;;;;;;;6.63;100.00;100155.72;5034571;28;20049;-70
2023/12/04 08:35:24;;;;;;;17.33;4.53;;;;;;;6.74;100.00;100160.59;5038569;28;20406;-70
2023/12/04 08:37:50;;;;;;;15.77;4.15;;;;;;;6.72;100.00;100154.59;5036857;28;20060;-70
2023/12/04 08:40:17;;;;;;;19.67;5.15;;;;;;;6.59;100.00;100167.97;5041441;28;20037;-70
2023/12/04 08:42:45;;;;;;;9.20;3.13;;;;;;;6.63;100.00;100164.38;5043180;28;20073;-70
2023/12/04 08:45:12;;;;;;;12.90;4.00;;;;;;;6.56;100.00;100173.25;5041000;28;20060;-70
2023/12/04 08:47:39;;;;;;;16.02;3.80;;;;;;;6.39;100.00;100165.97;5044430;28;20142;-70
2023/12/04 08:50:06;;;;;;;17.92;3.85;;;;;;;6.54;100.00;100171.59;5048841;28;20099;-71
2023/12/04 08:52:33;;;;;;;12.75;4.20;;;;;;;6.59;100.00;100167.13;5040682;28;20049;-70
2023/12/04 08:55:00;;;;;;;19.23;4.45;;;;;;;6.56;100.00;100159.41;5040956;28;20430;-70
2023/12/04 08:57:27;;;;;;;21.20;4.07;;;;;;;6.50;100.00;100162.16;5043208;28;20624;-70
2023/12/04 08:59:54;;;;;;;23.55;4.50;;;;;;;6.29;100.00;100148.94;5053582;28;20095;-70
2023/12/04 09:02:21;;;;;;;14.07;3.70;;;;;;;6.61;100.00;100168.75;5054290;28;20041;-70
2023/12/04 09:04:48;;;;;;;11.57;3.70;;;;;;;6.54;100.00;100162.03;5047281;28;20056;-70
2023/12/04 09:07:15;;;;;;;16.73;4.22;;;;;;;6.61;100.00;100181.78;5054376;28;20056;-71
2023/12/04 09:09:46;;;;;;;13.00;3.60;;;;;;;6.45;100.00;100186.56;5049706;28;20450;-70
2023/12/04 09:12:14;;;;;;;11.57;3.22;;;;;;;6.51;100.00;100182.09;5043284;28;20049;-70
2023/12/04 09:14:41;;;;;;;16.38;4.00;;;;;;;6.55;100.00;100188.91;5052336;28;20393;-70
2023/12/04 09:17:07;;;;;;;15.77;4.80;;;;;;;6.62;100.00;100186.09;5052876;28;20045;-70
2023/12/04 09:19:34;;;;;;;11.90;3.40;;;;;;;6.52;100.00;100197.66;5062006;28;20049;-70
2023/12/04 09:22:02;;;;;;;12.60;2.97;;;;;;;6.51;100.00;100218.50;5053702;28;20055;-70
2023/12/04 09:24:44;;;;;;;11.50;3.22;;;;;;;6.59;100.00;100221.75;5039954;28;20081;-70
2023/12/04 09:27:11;;;;;;;17.02;3.67;;;;;;;6.69;100.00;100232.72;5052217;28;20083;-70
2023/12/04 09:29:38;;;;;;;15.80;3.85;;;;;;;6.59;100.00;100211.34;5052374;28;20486;-70
2023/12/04 09:32:05;;;;;;;17.17;3.58;;;;;;;6.72;100.00;100225.66;5053211;28;20049;-70
2023/12/04 09:34:32;;;;;;;19.48;4.78;;;;;;;6.55;100.00;100223.59;5040901;28;20580;-71
2023/12/04 09:36:59;;;;;;;16.23;3.25;;;;;;;6.69;100.00;100217.09;5051233;28;20049;-70
2023/12/04 09:39:36;;;;;;;19.15;4.82;;;;;;;6.65;100.00;100224.16;5052816;28;20067;-70
2023/12/04 09:42:03;;;;;;;11.40;3.20;;;;;;;6.71;100.00;100236.13;5057299;28;20128;-70
2023/12/04 09:44:30;;;;;;;13.00;3.30;;;;;;;6.58;100.00;100243.44;5051226;28;20442;-70
2023/12/04 09:46:59;;;;;;;17.27;3.10;;;;;;;6.41;100.00;100239.59;5051611;28;20482;-70
2023/12/04 09:49:28;;;;;;;11.18;2.75;;;;;;;6.53;100.00;100268.72;5061011;28;20505;-70
2023/12/04 09:51:57;;;;;;;15.00;5.13;;;;;;;6.43;100.00;100263.78;5057341;28;20102;-70
2023/12/04 09:54:26;;;;;;;12.20;2.83;;;;;;;6.51;100.00;100265.31;5059274;28;20048;-70
2023/12/04 09:56:53;;;;;;;9.75;2.40;;;;;;;6.49;100.00;100249.75;5057796;28;20552;-70
2023/12/04 09:59:25;;;;;;;10.88;3.50;;;;;;;6.30;100.00;100267.63;5039085;28;20486;-70
2023/12/04 10:01:52;;;;;;;14.37;3.00;;;;;;;6.42;100.00;100256.88;5043508;28;20396;-70
2023/12/04 10:04:21;;;;;;;11.70;2.65;;;;;;;6.64;100.00;100266.69;5039044;28;20132;-70
2023/12/04 10:06:51;;;;;;;10.60;3.28;;;;;;;6.66;100.00;100264.91;5052935;28;20103;-70
2023/12/04 10:09:19;;;;;;;11.48;3.30;;;;;;;6.47;100.00;100261.97;5038604;28;20136;-70
2023/12/04 10:11:45;;;;;;;10.88;3.10;;;;;;;6.55;100.00;100261.72;5059106;28;20103;-70
2023/12/04 10:14:17;;;;;;;12.77;3.97;;;;;;;6.63;100.00;100270.19;5044128;28;20495;-70
2023/12/04 10:16:44;;;;;;;13.00;3.70;;;;;;;6.55;100.00;100257.41;5066654;28;20041;-70
2023/12/04 10:19:26;;;;;;;11.15;3.58;;;;;;;6.46;100.00;100257.63;5053143;28;20052;-70
2023/12/04 10:22:02;;;;;;;14.43;3.08;;;;;;;6.51;100.00;100254.91;5042871;28;20504;-70
2023/12/04 10:24:33;;;;;;;15.02;3.65;;;;;;;6.69;100.00;100274.34;5048603;28;20052;-70
2023/12/04 10:27:12;;;;;;;12.95;3.45;;;;;;;6.65;100.00;100258.81;5046412;28;20055;-70
2023/12/04 10:29:42;;;;;;;18.27;3.88;;;;;;;6.71;100.00;100264.75;5052151;28;20069;-70
2023/12/04 10:32:08;;;;;;;11.60;3.00;;;;;;;6.73;100.00;100261.22;5038379;28;20047;-70
2023/12/04 10:34:35;;;;;;;10.32;3.17;;;;;;;6.83;100.00;100259.19;5039461;28;20053;-70
2023/12/04 10:37:04;;;;;;;12.38;3.60;;;;;;;6.72;100.00;100251.69;5064861;28;20049;-71
2023/12/04 10:39:46;;;;;;;17.02;3.25;;;;;;;6.96;100.00;100268.34;5052080;28;20525;-70
2023/12/04 10:42:27;;;;;;;15.95;4.55;;;;;;;6.82;100.00;100250.53;5051519;28;20046;-70
2023/12/04 10:44:58;;;;;;;15.07;3.25;;;;;;;6.98;100.00;100266.53;5063739;28;20507;-70
2023/12/04 10:47:25;;;;;;;20.52;3.67;;;;;;;6.92;100.00;100264.09;5038021;28;20052;-70
2023/12/04 10:49:52;;;;;;;13.95;2.97;;;;;;;6.90;100.00;100265.06;5079818;28;20076;-70
2023/12/04 10:52:20;;;;;;;8.68;3.00;;;;;;;6.81;100.00;100245.38;5067547;28;20073;-70
2023/12/04 10:54:50;;;;;;;15.45;3.47;;;;;;;6.92;100.00;100252.84;5052392;28;20463;-71
2023/12/04 10:57:25;;;;;;;16.50;3.33;;;;;;;6.97;100.00;100254.41;5050185;28;20053;-70
2023/12/04 10:59:57;;;;;;;16.77;3.83;;;;;;;6.97;100.00;100253.56;5055501;28;20098;-69
2023/12/04 11:02:26;;;;;;;12.57;3.75;;;;;;;6.84;100.00;100235.72;5064640;28;20044;-70
2023/12/04 11:04:58;;;;;;;13.73;3.70;;;;;;;6.81;100.00;100243.59;5054545;28;20073;-70
2023/12/04 11:07:27;;;;;;;15.20;3.55;;;;;;;7.06;100.00;100237.66;5064084;28;20053;-70
2023/12/04 11:09:55;;;;;;;12.18;3.88;;;;;;;7.13;100.00;100254.78;5056544;28;20055;-70
2023/12/04 11:12:25;;;;;;;13.48;3.92;;;;;;;6.92;100.00;100266.69;5059159;28;20084;-70
2023/12/04 11:14:59;;;;;;;15.23;4.93;;;;;;;7.02;100.00;100275.94;5054540;28;20505;-70
2023/12/04 11:17:27;;;;;;;;;;;;;;;7.00;100.00;100288.16;5059752;28;20056;-70
2023/12/04 11:19:58;;;;;;;9.02;2.67;;;;;;;7.09;100.00;100294.84;5051347;28;20357;-70
2023/12/04 11:22:25;;;;;;;19.40;3.90;;;;;;;6.92;100.00;100297.94;5050873;28;20056;-71
2023/12/04 11:24:52;;;;;;;11.05;3.08;;;;;;;6.91;100.00;100290.19;5049841;28;20053;-70